Time;durP1;ratioP1;P1;durP2;ratioP2;P2;SDS_P1;SDS_P2;PMS_P1;PMS_P2;Temp;Humidity;BMP_temperature;BMP_pressure;BME280_temperature;BME280_humidity;BME280_pressure;Samples;Min_cycle;Max_cycle;Signal;HPM_P1;HPM_P2
2022/01/25 00:08:53;;;;;;;70.40;29.52;;;;;;;2.72;100.00;103570.41;5036178;28;20065;-70
2022/01/25 00:25:44;;;;;;;72.30;29.88;;;;;;;2.77;100.00;103585.56;5034396;28;20052;-70
2022/01/25 00:28:21;;;;;;;76.72;30.95;;;;;;;2.72;100.00;103573.91;5036924;28;20057;-76
2022/01/25 00:31:01;;;;;;;70.38;28.27;;;;;;;2.69;100.00;103580.78;5037125;28;20048;-76
2022/01/25 00:33:33;;;;;;;79.10;32.33;;;;;;;2.66;100.00;103578.94;5038562;28;20144;-76
2022/01/25 00:36:03;;;;;;;79.45;30.17;;;;;;;2.64;100.00;103574.41;5039134;28;20106;-76
2022/01/25 00:38:56;;;;;;;70.07;31.00;;;;;;;2.66;100.00;103570.16;5037640;28;20051;-76
2022/01/25 00:41:26;;;;;;;68.63;29.98;;;;;;;2.63;100.00;103575.28;5040689;28;20562;-76
2022/01/25 00:43:57;;;;;;;73.70;31.20;;;;;;;2.63;100.00;103570.88;5037793;28;20084;-76
2022/01/25 00:46:25;;;;;;;72.43;29.55;;;;;;;2.65;100.00;103573.59;5038948;28;20156;-76
2022/01/25 00:48:59;;;;;;;80.47;31.00;;;;;;;2.64;100.00;103567.44;5039156;28;20049;-76
2022/01/25 00:51:57;;;;;;;74.53;28.98;;;;;;;2.66;100.00;103572.78;5040971;28;20117;-70
2022/01/25 00:54:32;;;;;;;74.43;29.98;;;;;;;2.66;100.00;103562.22;5038918;28;20060;-70
2022/01/25 00:57:05;;;;;;;79.15;31.80;;;;;;;2.68;100.00;103561.44;5035969;28;20132;-71
2022/01/25 00:59:35;;;;;;;78.32;30.75;;;;;;;2.68;100.00;103563.19;5040324;28;20126;-71
2022/01/25 01:02:13;;;;;;;78.45;30.35;;;;;;;2.70;100.00;103553.59;5038546;28;20232;-71
2022/01/25 01:04:43;;;;;;;83.30;34.63;;;;;;;2.68;100.00;103561.44;5032877;28;20108;-69
2022/01/25 01:07:15;;;;;;;79.43;31.00;;;;;;;2.72;100.00;103557.22;5035637;28;20180;-70
2022/01/25 01:09:47;;;;;;;76.95;29.98;;;;;;;2.73;100.00;103554.63;5037131;28;20117;-69
2022/01/25 01:12:41;;;;;;;75.25;30.77;;;;;;;2.74;100.00;103552.91;5036300;28;20177;-71
2022/01/25 01:15:21;;;;;;;77.60;31.48;;;;;;;2.69;100.00;103543.88;5039175;28;20059;-71
2022/01/25 01:29:34;;;;;;;76.57;31.55;;;;;;;2.65;100.00;103545.50;5033006;28;20142;-71
2022/01/25 01:32:18;;;;;;;83.05;32.45;;;;;;;2.63;100.00;103554.19;5033817;28;20045;-71
2022/01/25 01:40:51;;;;;;;79.38;30.75;;;;;;;2.67;100.00;103559.63;5033962;28;20744;-70
2022/01/25 01:46:22;;;;;;;82.75;31.27;;;;;;;2.66;100.00;103556.97;5033989;28;20048;-70
2022/01/25 01:48:54;;;;;;;78.25;31.67;;;;;;;2.69;100.00;103549.16;5037710;28;20578;-70
2022/01/25 01:51:30;;;;;;;81.78;31.83;;;;;;;2.67;100.00;103548.19;5037304;28;20420;-70
2022/01/25 01:54:12;;;;;;;81.38;32.58;;;;;;;2.59;100.00;103546.13;5035682;28;20045;-70
2022/01/25 01:56:45;;;;;;;85.57;30.90;;;;;;;2.63;100.00;103547.16;5034153;28;20045;-70
2022/01/25 01:59:16;;;;;;;85.25;29.65;;;;;;;2.65;100.00;103539.31;5034676;28;20508;-70
2022/01/25 02:01:47;;;;;;;86.93;31.98;;;;;;;2.66;100.00;103535.88;5034678;28;20444;-70
2022/01/25 02:04:19;;;;;;;81.93;32.10;;;;;;;2.64;100.00;103537.50;5036609;28;20489;-70
2022/01/25 02:06:54;;;;;;;82.70;30.33;;;;;;;2.66;100.00;103533.22;5036181;28;20049;-70
2022/01/25 02:09:24;;;;;;;88.13;33.17;;;;;;;2.68;100.00;103543.00;5039594;28;20084;-70
2022/01/25 02:11:53;;;;;;;84.10;33.10;;;;;;;2.64;100.00;103542.78;5015779;28;20124;-70
2022/01/25 02:14:21;;;;;;;83.72;31.77;;;;;;;2.61;100.00;103538.28;5021446;28;20073;-70
2022/01/25 02:17:08;;;;;;;83.80;34.15;;;;;;;2.67;100.00;103542.91;5033927;28;20301;-71
2022/01/25 02:22:31;;;;;;;83.75;32.65;;;;;;;2.60;100.00;103534.72;5038231;28;20174;-70
2022/01/25 02:25:02;;;;;;;83.82;32.08;;;;;;;2.59;100.00;103525.03;5035398;28;20056;-70
2022/01/25 02:27:32;;;;;;;89.95;34.05;;;;;;;2.65;100.00;103526.13;5037514;28;20131;-71
2022/01/25 02:30:02;;;;;;;80.25;30.38;;;;;;;2.65;100.00;103518.22;5033696;28;20053;-71
2022/01/25 02:32:30;;;;;;;86.43;33.80;;;;;;;2.57;100.00;103520.50;5017211;28;20081;-71
2022/01/25 02:35:02;;;;;;;90.63;34.00;;;;;;;2.59;100.00;103510.97;5017549;28;20556;-71
2022/01/25 02:37:34;;;;;;;89.45;34.58;;;;;;;2.61;100.00;103520.72;5037356;28;20123;-71
2022/01/25 02:40:27;;;;;;;82.55;32.55;;;;;;;2.62;100.00;103511.06;5020099;28;20067;-71
2022/01/25 02:42:56;;;;;;;79.10;29.85;;;;;;;2.61;100.00;103512.81;5036075;28;20499;-71
2022/01/25 02:45:32;;;;;;;83.72;31.45;;;;;;;2.58;100.00;103517.06;5036279;28;20049;-70
2022/01/25 02:50:49;;;;;;;83.95;33.30;;;;;;;2.56;100.00;103517.00;5037455;28;20044;-69
2022/01/25 02:53:21;;;;;;;75.60;29.48;;;;;;;2.59;100.00;103518.88;5032483;28;20051;-72
2022/01/25 02:55:49;;;;;;;83.45;33.05;;;;;;;2.58;100.00;103522.34;5035762;28;20059;-69
2022/01/25 02:58:24;;;;;;;81.88;30.75;;;;;;;2.58;100.00;103522.34;5021427;28;20287;-70
2022/01/25 03:00:52;;;;;;;98.35;35.30;;;;;;;2.58;100.00;103528.50;5033427;28;20203;-76
2022/01/25 03:03:20;;;;;;;89.50;35.10;;;;;;;2.57;100.00;103533.69;5036350;28;20056;-75
2022/01/25 03:05:48;;;;;;;100.00;35.15;;;;;;;2.63;100.00;103530.44;5037456;28;20055;-76
2022/01/25 03:08:17;;;;;;;88.43;32.40;;;;;;;2.64;100.00;103541.06;5036851;28;20049;-75
2022/01/25 03:10:47;;;;;;;82.53;31.50;;;;;;;2.62;100.00;103534.81;5034721;28;20184;-78
2022/01/25 03:13:19;;;;;;;96.80;35.03;;;;;;;2.62;100.00;103537.44;5037393;28;20107;-76
2022/01/25 03:16:01;;;;;;;85.50;31.48;;;;;;;2.61;100.00;103538.28;5036322;28;20049;-77
2022/01/25 03:18:39;;;;;;;85.30;30.67;;;;;;;2.62;100.00;103537.44;5034282;28;20507;-77
2022/01/25 03:21:22;;;;;;;91.35;34.58;;;;;;;2.60;100.00;103537.38;5036087;28;20080;-77
2022/01/25 03:23:54;;;;;;;84.25;31.42;;;;;;;2.62;100.00;103532.16;5035311;28;20069;-77
2022/01/25 03:26:24;;;;;;;96.65;33.50;;;;;;;2.63;100.00;103527.81;5036466;28;20040;-77
2022/01/25 03:28:53;;;;;;;86.40;35.58;;;;;;;2.61;100.00;103522.47;5037164;28;20081;-75
2022/01/25 03:31:22;;;;;;;92.70;34.50;;;;;;;2.65;100.00;103521.75;5041027;28;20081;-75
2022/01/25 03:33:50;;;;;;;90.15;32.90;;;;;;;2.61;100.00;103518.09;5039871;28;20055;-77
2022/01/25 03:36:18;;;;;;;81.97;31.27;;;;;;;2.62;100.00;103521.63;5038049;28;20291;-76
2022/01/25 03:38:47;;;;;;;94.55;33.80;;;;;;;2.63;100.00;103514.63;5039709;28;20715;-71
2022/01/25 03:41:17;;;;;;;96.35;34.20;;;;;;;2.62;100.00;103516.34;5038276;28;20053;-69
2022/01/25 03:43:53;;;;;;;87.80;33.47;;;;;;;2.61;100.00;103514.56;5039341;28;20060;-69
2022/01/25 03:46:34;;;;;;;90.15;33.13;;;;;;;2.64;100.00;103517.34;5038133;28;20140;-70
2022/01/25 03:51:50;;;;;;;90.85;33.08;;;;;;;2.62;100.00;103513.72;5041381;28;20053;-69
2022/01/25 03:54:20;;;;;;;82.40;32.30;;;;;;;2.65;100.00;103515.59;5037182;28;20049;-69
2022/01/25 03:56:53;;;;;;;88.82;33.75;;;;;;;2.61;100.00;103514.56;5038844;28;20448;-70
2022/01/25 03:59:23;;;;;;;89.18;34.58;;;;;;;2.63;100.00;103515.53;5035337;28;20100;-69
2022/01/25 04:02:15;;;;;;;83.13;31.10;;;;;;;2.63;100.00;103523.44;5023714;28;20137;-70
2022/01/25 04:04:51;;;;;;;92.03;34.42;;;;;;;2.64;100.00;103519.06;5024136;28;20382;-69
2022/01/25 04:07:28;;;;;;;86.93;33.60;;;;;;;2.63;100.00;103510.25;5038594;28;20041;-69
2022/01/25 04:09:58;;;;;;;90.55;32.28;;;;;;;2.62;100.00;103513.72;5038714;28;20391;-78
2022/01/25 04:12:27;;;;;;;88.75;35.05;;;;;;;2.62;100.00;103516.34;5040492;28;20092;-76
2022/01/25 04:15:00;;;;;;;92.43;33.70;;;;;;;2.62;100.00;103513.72;5040201;28;20048;-78
2022/01/25 04:17:29;;;;;;;88.78;31.88;;;;;;;2.61;100.00;103507.53;5039183;28;20052;-75
2022/01/25 04:20:13;;;;;;;93.13;32.88;;;;;;;2.60;100.00;103504.84;5038599;28;20057;-71
2022/01/25 04:25:33;;;;;;;97.28;34.38;;;;;;;2.60;100.00;103495.19;5038752;28;20052;-71
2022/01/25 04:28:04;;;;;;;98.28;34.13;;;;;;;2.64;100.00;103501.53;5036817;28;20136;-69
2022/01/25 04:30:37;;;;;;;98.93;34.22;;;;;;;2.67;100.00;103498.09;5036870;28;20041;-70
2022/01/25 04:33:18;;;;;;;97.00;33.88;;;;;;;2.67;100.00;103503.38;5034635;28;20144;-70
2022/01/25 04:36:28;;;;;;;;;;;;;;;2.64;100.00;103490.06;5024125;28;20059;-69
2022/01/25 04:50:36;;;;;;;84.90;29.95;;;;;;;2.65;100.00;103492.75;5037978;28;20928;-72
2022/01/25 04:53:13;;;;;;;95.95;33.90;;;;;;;2.72;100.00;103496.56;5038649;28;20064;-71
2022/01/25 04:55:50;;;;;;;102.78;33.78;;;;;;;2.65;100.00;103492.75;5019396;28;20555;-71
2022/01/25 04:58:25;;;;;;;93.80;33.40;;;;;;;2.62;100.00;103495.25;5018128;28;20398;-69
2022/01/25 05:00:54;;;;;;;97.95;36.10;;;;;;;2.60;100.00;103484.63;5021492;28;20056;-70
2022/01/25 05:03:28;;;;;;;90.65;33.72;;;;;;;2.63;100.00;103488.28;5030067;28;20162;-69
2022/01/25 05:06:08;;;;;;;100.38;34.72;;;;;;;2.69;100.00;103483.25;5038842;28;20080;-71
2022/01/25 05:09:10;;;;;;;95.22;32.92;;;;;;;2.62;100.00;103487.34;5035125;28;20091;-69
2022/01/25 05:12:04;;;;;;;90.68;31.75;;;;;;;2.60;100.00;103492.56;5037715;28;20052;-71
2022/01/25 05:14:45;;;;;;;90.88;33.67;;;;;;;2.60;100.00;103487.28;5037318;28;20122;-69
2022/01/25 05:17:29;;;;;;;95.13;33.15;;;;;;;2.61;100.00;103488.19;5036814;28;20071;-70
2022/01/25 05:22:43;;;;;;;83.55;30.65;;;;;;;2.57;100.00;103475.69;5035628;28;20447;-70
2022/01/25 05:25:12;;;;;;;92.55;32.55;;;;;;;2.60;100.00;103481.13;5018969;28;20347;-70
2022/01/25 05:27:43;;;;;;;98.80;35.83;;;;;;;2.60;100.00;103476.72;5017300;28;20048;-76
2022/01/25 05:30:12;;;;;;;91.95;33.20;;;;;;;2.57;100.00;103480.97;5038717;28;20057;-76
2022/01/25 05:32:40;;;;;;;87.60;31.50;;;;;;;2.60;100.00;103478.47;5036733;28;20315;-76
2022/01/25 05:35:10;;;;;;;96.20;33.05;;;;;;;2.60;100.00;103486.38;5039557;28;20538;-76
2022/01/25 05:37:41;;;;;;;93.35;34.25;;;;;;;2.57;100.00;103479.25;5039276;28;20063;-77
2022/01/25 05:40:16;;;;;;;94.13;34.00;;;;;;;2.58;100.00;103482.78;5036639;28;20202;-76
2022/01/25 05:42:51;;;;;;;103.55;35.55;;;;;;;2.54;100.00;103484.41;5040419;28;20269;-76
2022/01/25 05:45:26;;;;;;;89.03;33.30;;;;;;;2.59;100.00;103485.50;5037430;28;20048;-76
2022/01/25 05:47:54;;;;;;;89.65;31.73;;;;;;;2.62;100.00;103492.63;5037161;28;20109;-76
2022/01/25 05:50:24;;;;;;;84.70;31.75;;;;;;;2.63;100.00;103489.16;5039514;28;20095;-76
2022/01/25 05:52:52;;;;;;;92.70;32.58;;;;;;;2.62;100.00;103495.25;5038793;28;20148;-76
2022/01/25 05:55:21;;;;;;;96.65;34.75;;;;;;;2.57;100.00;103491.53;5038864;28;20220;-76
2022/01/25 05:57:49;;;;;;;92.20;32.20;;;;;;;2.63;100.00;103490.91;5037543;28;20052;-77
2022/01/25 06:00:17;;;;;;;90.47;32.55;;;;;;;2.60;100.00;103495.19;5040592;28;20082;-77
2022/01/25 06:02:46;;;;;;;88.00;32.85;;;;;;;2.55;100.00;103493.19;5036115;28;20055;-76
2022/01/25 06:05:13;;;;;;;94.07;32.88;;;;;;;2.53;100.00;103497.50;5038983;28;20057;-77
2022/01/25 06:07:44;;;;;;;99.63;33.97;;;;;;;2.53;100.00;103502.78;5036300;28;20087;-76
2022/01/25 06:10:11;;;;;;;91.22;30.52;;;;;;;2.54;100.00;103507.22;5036552;28;20056;-77
2022/01/25 06:12:42;;;;;;;80.00;32.33;;;;;;;2.50;100.00;103500.88;5035457;28;20052;-70
2022/01/25 06:15:12;;;;;;;87.70;32.58;;;;;;;2.46;100.00;103504.25;5016952;28;20057;-70
2022/01/25 06:17:41;;;;;;;93.57;31.67;;;;;;;2.52;100.00;103503.59;5037652;28;20052;-70
2022/01/25 06:20:15;;;;;;;81.88;30.58;;;;;;;2.52;100.00;103495.69;5035591;28;20131;-70
2022/01/25 06:22:46;;;;;;;90.13;31.90;;;;;;;2.53;100.00;103501.03;5035968;28;20504;-70
2022/01/25 06:25:15;;;;;;;90.07;33.42;;;;;;;2.47;100.00;103506.06;5038872;28;20185;-70
2022/01/25 06:27:45;;;;;;;91.60;34.10;;;;;;;2.45;100.00;103496.25;5037243;28;20155;-70
2022/01/25 06:30:20;;;;;;;77.90;31.65;;;;;;;2.46;100.00;103501.59;5017991;28;20048;-70
2022/01/25 06:32:51;;;;;;;81.45;32.10;;;;;;;2.47;100.00;103502.50;5017959;28;20041;-70
2022/01/25 06:35:27;;;;;;;79.82;32.22;;;;;;;2.51;100.00;103501.81;5034541;28;20049;-70
2022/01/25 06:38:03;;;;;;;74.35;29.55;;;;;;;2.50;100.00;103502.63;5038722;28;20045;-70
2022/01/25 06:40:32;;;;;;;82.43;29.77;;;;;;;2.47;100.00;103506.06;5037358;28;20091;-70
2022/01/25 06:43:02;;;;;;;92.60;32.80;;;;;;;2.47;100.00;103506.06;5039378;28;20044;-70
2022/01/25 06:45:30;;;;;;;91.18;33.38;;;;;;;2.48;100.00;103507.84;5033771;28;20109;-70
2022/01/25 06:48:00;;;;;;;85.07;32.13;;;;;;;2.49;100.00;103509.66;5021773;28;20135;-70
2022/01/25 06:50:30;;;;;;;85.95;31.52;;;;;;;2.53;100.00;103514.22;5018298;28;20053;-70
2022/01/25 06:53:04;;;;;;;82.18;29.85;;;;;;;2.53;100.00;103513.31;5012728;28;20065;-70
2022/01/25 06:55:56;;;;;;;89.57;31.42;;;;;;;2.48;100.00;103509.59;5020999;28;20648;-70
2022/01/25 06:58:26;;;;;;;88.03;29.98;;;;;;;2.51;100.00;103515.00;5039555;28;20060;-77
2022/01/25 07:00:54;;;;;;;94.45;31.00;;;;;;;2.56;100.00;103514.34;5038641;28;20480;-77
2022/01/25 07:03:22;;;;;;;82.25;29.90;;;;;;;2.53;100.00;103514.22;5034893;28;20073;-77
2022/01/25 07:05:50;;;;;;;85.93;31.05;;;;;;;2.48;100.00;103517.50;5036720;28;20080;-76
2022/01/25 07:08:20;;;;;;;92.90;33.72;;;;;;;2.45;100.00;103515.59;5034623;28;20112;-77
2022/01/25 07:10:53;;;;;;;91.32;34.17;;;;;;;2.45;100.00;103515.59;5035678;28;20056;-76
2022/01/25 07:13:21;;;;;;;76.40;29.92;;;;;;;2.46;100.00;103511.25;5034132;28;20049;-76
2022/01/25 07:15:48;;;;;;;85.03;31.05;;;;;;;2.46;100.00;103513.91;5033652;28;20052;-76
2022/01/25 07:18:16;;;;;;;87.72;33.70;;;;;;;2.45;100.00;103519.97;5033059;28;20116;-77
2022/01/25 07:20:44;;;;;;;91.78;32.53;;;;;;;2.45;100.00;103526.16;5027755;28;20053;-77
2022/01/25 07:23:13;;;;;;;86.53;30.05;;;;;;;2.47;100.00;103521.88;5027745;28;20576;-77
2022/01/25 07:25:42;;;;;;;95.65;35.38;;;;;;;2.50;100.00;103529.88;5031878;28;20132;-70
2022/01/25 07:28:13;;;;;;;85.15;32.85;;;;;;;2.46;100.00;103527.06;5019010;28;20544;-70
2022/01/25 07:31:06;;;;;;;;;;;;;;;2.50;100.00;103527.25;5036644;28;20058;-71
2022/01/25 07:33:38;;;;;;;93.13;33.50;;;;;;;2.55;100.00;103530.09;5036267;28;20019;-71
2022/01/25 07:36:11;;;;;;;95.47;33.33;;;;;;;2.53;100.00;103530.03;5033604;28;20046;-71
2022/01/25 07:39:08;;;;;;;81.38;30.60;;;;;;;2.50;100.00;103531.63;5036581;28;20263;-71
2022/01/25 07:42:02;;;;;;;95.85;32.33;;;;;;;2.49;100.00;103522.84;5034094;28;20056;-77
2022/01/25 07:44:44;;;;;;;96.38;35.38;;;;;;;2.47;100.00;103536.75;5034932;28;20720;-77
2022/01/25 07:47:14;;;;;;;96.88;32.88;;;;;;;2.48;100.00;103528.03;5036888;28;20037;-76
2022/01/25 07:49:47;;;;;;;88.35;32.88;;;;;;;2.46;100.00;103525.31;5039361;28;20051;-76
2022/01/25 07:52:16;;;;;;;88.97;35.17;;;;;;;2.42;100.00;103524.28;5033140;28;20053;-77
2022/01/25 07:55:09;;;;;;;91.32;33.28;;;;;;;2.44;100.00;103527.00;5036122;28;20150;-77
2022/01/25 07:58:04;;;;;;;89.50;34.00;;;;;;;2.45;100.00;103523.50;5037304;28;20213;-77
2022/01/25 08:00:36;;;;;;;90.63;33.45;;;;;;;2.48;100.00;103525.41;5036293;28;20077;-76
2022/01/25 08:03:04;;;;;;;95.68;34.72;;;;;;;2.49;100.00;103525.47;5036225;28;20056;-76
2022/01/25 08:05:44;;;;;;;94.40;32.67;;;;;;;2.52;100.00;103525.63;5036633;28;20118;-76
2022/01/25 08:08:18;;;;;;;97.18;33.38;;;;;;;2.52;100.00;103517.69;5032760;28;20053;-77
2022/01/25 08:10:47;;;;;;;93.40;33.35;;;;;;;2.53;100.00;103522.13;5036095;28;20099;-76
2022/01/25 08:13:19;;;;;;;96.18;32.97;;;;;;;2.56;100.00;103526.66;5032977;28;20045;-76
2022/01/25 08:15:51;;;;;;;99.38;34.65;;;;;;;2.56;100.00;103518.72;5037603;28;20136;-76
2022/01/25 08:18:19;;;;;;;91.28;31.70;;;;;;;2.57;100.00;103523.16;5036965;28;20126;-78
2022/01/25 08:20:47;;;;;;;92.53;31.67;;;;;;;2.56;100.00;103521.38;5036168;28;20041;-78
2022/01/25 08:23:39;;;;;;;92.75;32.90;;;;;;;2.60;100.00;103515.38;5041619;28;20064;-79
2022/01/25 08:26:07;;;;;;;92.93;33.20;;;;;;;2.58;100.00;103515.31;5037551;28;20053;-77
2022/01/25 08:28:37;;;;;;;102.95;33.20;;;;;;;2.63;100.00;103519.91;5041045;28;20048;-78
2022/01/25 08:31:06;;;;;;;84.05;32.42;;;;;;;2.67;100.00;103511.28;5040029;28;20056;-77
2022/01/25 08:33:57;;;;;;;81.60;32.22;;;;;;;2.64;100.00;103506.78;5040712;28;20397;-78
2022/01/25 08:36:30;;;;;;;100.82;35.45;;;;;;;2.74;100.00;103513.34;5037224;28;20048;-72
2022/01/25 08:39:22;;;;;;;91.53;33.33;;;;;;;2.76;100.00;103506.44;5034547;28;20052;-72
2022/01/25 08:42:20;;;;;;;90.05;32.65;;;;;;;2.61;100.00;103502.28;5037861;28;20135;-72
2022/01/25 08:45:17;;;;;;;90.85;31.13;;;;;;;2.59;100.00;103503.94;5037265;28;20060;-71
2022/01/25 08:48:16;;;;;;;93.47;35.33;;;;;;;2.54;100.00;103509.88;5020096;28;20056;-73
2022/01/25 08:51:12;;;;;;;87.28;30.63;;;;;;;2.60;100.00;103511.00;5038478;28;20107;-72
2022/01/25 08:57:25;;;;;;;108.38;34.80;;;;;;;2.67;100.00;103513.91;5012432;28;20704;-71
2022/01/25 09:00:22;;;;;;;96.53;33.55;;;;;;;2.67;100.00;103508.66;5038031;28;20057;-71
2022/01/25 09:03:46;;;;;;;88.40;31.10;;;;;;;2.71;100.00;103522.03;5038113;28;20057;-71
2022/01/25 09:06:46;;;;;;;98.85;32.78;;;;;;;2.72;100.00;103522.94;5035578;28;20076;-71
2022/01/25 09:09:32;;;;;;;93.90;32.65;;;;;;;2.73;100.00;103514.19;5033408;28;20132;-71
2022/01/25 09:12:06;;;;;;;105.53;33.47;;;;;;;2.71;100.00;103522.03;5019160;28;20056;-70
2022/01/25 09:14:34;;;;;;;97.57;35.03;;;;;;;2.81;100.00;103539.16;5029963;28;20052;-69
2022/01/25 09:17:09;;;;;;;105.28;35.97;;;;;;;2.81;100.00;103528.63;5037436;28;20096;-69
2022/01/25 09:20:02;;;;;;;94.20;32.25;;;;;;;2.86;100.00;103536.69;5031418;28;20344;-69
2022/01/25 09:22:33;;;;;;;94.00;31.95;;;;;;;2.86;100.00;103537.63;5002334;28;20094;-71
2022/01/25 09:25:25;;;;;;;100.55;36.35;;;;;;;2.88;100.00;103529.75;5023630;28;20088;-70
2022/01/25 09:27:55;;;;;;;100.13;34.95;;;;;;;2.88;100.00;103535.94;5020566;28;20071;-71
2022/01/25 09:30:24;;;;;;;102.70;35.53;;;;;;;2.87;100.00;103530.59;5032584;28;20493;-71
2022/01/25 09:32:54;;;;;;;96.30;31.63;;;;;;;2.92;100.00;103539.63;5037980;28;20044;-72
2022/01/25 09:35:29;;;;;;;96.53;33.97;;;;;;;2.94;100.00;103541.47;5032485;28;20115;-71
2022/01/25 09:38:00;;;;;;;95.82;33.25;;;;;;;2.93;100.00;103534.41;5035947;28;20147;-71
2022/01/25 09:40:31;;;;;;;102.25;36.75;;;;;;;2.99;100.00;103537.28;5035833;28;20053;-72
2022/01/25 09:43:00;;;;;;;96.40;33.78;;;;;;;3.04;100.00;103542.75;5035763;28;20141;-71
2022/01/25 09:45:29;;;;;;;107.18;34.22;;;;;;;3.04;100.00;103542.75;5038280;28;20051;-70
2022/01/25 09:47:58;;;;;;;94.22;33.33;;;;;;;3.01;100.00;103542.63;5015592;28;20048;-71
2022/01/25 09:50:27;;;;;;;94.68;33.90;;;;;;;3.04;100.00;103545.41;5038450;28;20581;-71
2022/01/25 09:52:55;;;;;;;100.28;33.83;;;;;;;2.99;100.00;103549.59;5035583;28;20136;-69
2022/01/25 09:55:26;;;;;;;95.00;35.13;;;;;;;3.04;100.00;103545.41;5037041;28;20061;-79
2022/01/25 09:57:54;;;;;;;94.57;35.05;;;;;;;3.04;100.00;103552.44;5038894;28;20106;-75
2022/01/25 10:00:24;;;;;;;105.05;35.17;;;;;;;3.09;100.00;103556.16;5038506;28;20163;-78
2022/01/25 10:02:59;;;;;;;99.85;33.35;;;;;;;3.09;100.00;103561.44;5039487;28;20045;-77
2022/01/25 10:05:33;;;;;;;86.40;31.08;;;;;;;3.23;100.00;103564.66;5035273;28;20549;-77
2022/01/25 10:08:02;;;;;;;;;;;;;;;3.17;100.00;103567.94;5040471;28;20465;-77
2022/01/25 10:10:32;;;;;;;85.97;31.45;;;;;;;3.17;100.00;103570.59;5034986;28;19996;-71
2022/01/25 10:13:10;;;;;;;91.03;32.13;;;;;;;3.14;100.00;103570.44;5019259;28;20510;-70
2022/01/25 10:15:40;;;;;;;102.60;34.45;;;;;;;3.01;100.00;103573.41;5036892;28;20098;-71
2022/01/25 10:18:17;;;;;;;99.25;33.97;;;;;;;2.99;100.00;103574.22;5018694;28;20057;-71
2022/01/25 10:20:49;;;;;;;96.55;35.08;;;;;;;3.10;100.00;103577.34;5017905;28;20107;-71
2022/01/25 10:23:22;;;;;;;120.20;37.08;;;;;;;3.11;100.00;103578.22;5035789;28;20378;-70
2022/01/25 10:25:54;;;;;;;88.72;31.90;;;;;;;3.14;100.00;103583.66;5036349;28;20200;-70
2022/01/25 10:28:31;;;;;;;93.10;32.22;;;;;;;3.18;100.00;103577.66;5017153;28;20048;-70
2022/01/25 10:31:03;;;;;;;102.93;35.05;;;;;;;3.21;100.00;103576.88;5038692;28;20116;-70
2022/01/25 10:33:56;;;;;;;105.70;35.92;;;;;;;3.16;100.00;103584.59;5033411;28;20145;-70
2022/01/25 10:36:45;;;;;;;111.47;34.60;;;;;;;3.23;100.00;103578.75;5034656;28;20076;-70
2022/01/25 10:39:14;;;;;;;92.78;33.05;;;;;;;3.26;100.00;103583.25;5037654;28;20045;-70
2022/01/25 10:42:07;;;;;;;92.85;31.50;;;;;;;3.20;100.00;103586.53;5036355;28;20061;-70
2022/01/25 10:44:49;;;;;;;102.72;34.35;;;;;;;3.23;100.00;103586.66;5020191;28;20187;-69
2022/01/25 10:47:22;;;;;;;106.13;32.70;;;;;;;3.18;100.00;103585.56;5033862;28;20244;-69
2022/01/25 10:49:51;;;;;;;101.82;33.78;;;;;;;3.21;100.00;103590.97;5020915;28;20843;-69
2022/01/25 10:52:29;;;;;;;105.50;33.40;;;;;;;3.34;100.00;103581.84;5016580;28;20061;-69
2022/01/25 10:55:09;;;;;;;103.67;34.53;;;;;;;3.27;100.00;103587.69;5037837;28;20482;-72
2022/01/25 10:57:39;;;;;;;89.55;33.03;;;;;;;3.31;100.00;103587.88;5018352;28;20167;-69
2022/01/25 11:00:37;;;;;;;97.38;33.97;;;;;;;3.32;100.00;103583.50;5033691;28;20533;-70
2022/01/25 11:03:08;;;;;;;92.70;32.58;;;;;;;3.38;100.00;103582.88;5036670;28;20045;-69
2022/01/25 11:05:41;;;;;;;99.53;33.53;;;;;;;3.35;100.00;103584.56;5036877;28;20946;-70
2022/01/25 11:08:19;;;;;;;102.53;32.10;;;;;;;3.31;100.00;103577.31;5036436;28;20064;-69
2022/01/25 11:10:52;;;;;;;90.75;32.38;;;;;;;3.28;100.00;103577.19;5035637;28;20053;-70
2022/01/25 11:13:35;;;;;;;97.03;34.80;;;;;;;3.34;100.00;103593.31;5017160;28;20080;-70
2022/01/25 11:16:07;;;;;;;101.00;34.93;;;;;;;3.23;100.00;103580.50;5035365;28;20057;-69
2022/01/25 11:18:45;;;;;;;94.43;33.88;;;;;;;3.29;100.00;103586.03;4995494;28;20064;-69
2022/01/25 11:21:14;;;;;;;104.35;35.28;;;;;;;3.36;100.00;103577.53;5036194;28;20155;-69
2022/01/25 11:23:44;;;;;;;93.90;34.03;;;;;;;3.41;100.00;103575.09;5010947;28;20048;-70
2022/01/25 11:26:15;;;;;;;100.60;34.70;;;;;;;3.37;100.00;103576.66;5035538;28;20049;-71
2022/01/25 11:28:46;;;;;;;100.18;33.75;;;;;;;3.39;100.00;103577.66;5033678;28;20057;-71
2022/01/25 11:31:38;;;;;;;119.95;34.88;;;;;;;3.39;100.00;103574.09;5030887;28;20045;-71
2022/01/25 11:34:17;;;;;;;107.00;35.47;;;;;;;3.49;100.00;103573.63;5018610;28;20056;-71
2022/01/25 11:36:53;;;;;;;111.28;38.13;;;;;;;3.36;100.00;103567.88;5037005;28;20064;-69
2022/01/25 11:39:24;;;;;;;97.30;34.60;;;;;;;3.35;100.00;103573.06;5036878;28;20048;-69
2022/01/25 11:42:03;;;;;;;97.32;34.00;;;;;;;3.33;100.00;103572.13;5035966;28;20052;-70
2022/01/25 11:44:33;;;;;;;110.03;34.85;;;;;;;3.36;100.00;103561.69;5033425;28;20076;-70
2022/01/25 11:47:13;;;;;;;101.35;34.90;;;;;;;3.41;100.00;103559.25;5033053;28;20088;-70
2022/01/25 11:49:52;;;;;;;104.15;33.65;;;;;;;3.35;100.00;103555.53;5039415;28;20052;-69
2022/01/25 11:52:22;;;;;;;105.63;35.70;;;;;;;3.40;100.00;103555.69;5033502;28;20132;-69
2022/01/25 11:54:53;;;;;;;103.50;33.83;;;;;;;3.37;100.00;103552.91;5038862;28;20352;-69
2022/01/25 11:57:25;;;;;;;91.20;33.88;;;;;;;3.41;100.00;103549.59;5036270;28;20079;-69
2022/01/25 12:00:00;;;;;;;105.82;33.90;;;;;;;3.43;100.00;103550.53;5039263;28;20110;-69
2022/01/25 12:02:43;;;;;;;106.40;37.15;;;;;;;3.43;100.00;103549.66;5037576;28;20049;-69
2022/01/25 12:05:14;;;;;;;93.25;35.08;;;;;;;3.44;100.00;103539.16;5034700;28;20076;-69
2022/01/25 12:08:09;;;;;;;104.78;35.42;;;;;;;3.45;100.00;103540.03;5040469;28;20053;-69
2022/01/25 12:10:42;;;;;;;107.43;36.38;;;;;;;3.47;100.00;103541.88;5036590;28;20068;-69
2022/01/25 12:13:14;;;;;;;103.78;34.78;;;;;;;3.50;100.00;103534.09;5038103;28;20512;-69
2022/01/25 12:15:46;;;;;;;103.43;33.22;;;;;;;3.58;100.00;103536.19;5036604;28;20585;-69
2022/01/25 12:18:57;;;;;;;101.18;34.38;;;;;;;3.62;100.00;103541.63;5038898;28;20332;-69
2022/01/25 12:21:56;;;;;;;110.10;36.72;;;;;;;3.49;100.00;103531.41;5038017;28;20094;-69
2022/01/25 12:24:31;;;;;;;96.63;34.22;;;;;;;3.51;100.00;103530.63;5033695;28;20088;-69
2022/01/25 12:27:08;;;;;;;102.22;36.13;;;;;;;3.54;100.00;103527.19;5038542;28;20045;-69
2022/01/25 12:29:43;;;;;;;98.60;35.97;;;;;;;3.54;100.00;103524.56;5038359;28;20052;-71
2022/01/25 12:32:29;;;;;;;106.05;35.30;;;;;;;3.46;100.00;103524.28;5017787;28;20060;-70
2022/01/25 12:35:13;;;;;;;109.80;36.63;;;;;;;3.48;100.00;103513.78;5038179;28;20409;-71
2022/01/25 12:37:56;;;;;;;105.90;38.00;;;;;;;3.53;100.00;103517.50;5038368;28;20966;-77
2022/01/25 12:40:48;;;;;;;100.95;35.33;;;;;;;3.47;100.00;103517.25;5037977;28;20052;-77
2022/01/25 12:43:19;;;;;;;101.72;34.15;;;;;;;3.50;100.00;103512.97;5035497;28;20061;-77
2022/01/25 12:45:54;;;;;;;104.82;36.22;;;;;;;3.54;100.00;103506.06;5040199;28;20061;-71
2022/01/25 12:48:29;;;;;;;112.15;37.60;;;;;;;3.58;100.00;103513.31;5040993;28;20067;-71
2022/01/25 12:51:02;;;;;;;95.43;32.88;;;;;;;3.55;100.00;103500.84;5039895;28;20048;-69
2022/01/25 12:53:33;;;;;;;107.10;36.13;;;;;;;3.60;100.00;103502.81;5016242;28;20736;-71
2022/01/25 13:06:59;;;;;;;97.93;35.55;;;;;;;3.35;100.00;103491.25;5036783;28;20055;-71
2022/01/25 13:10:25;;;;;;;98.78;32.40;;;;;;;3.47;100.00;103477.63;5023925;28;20057;-71